Time;durP1;ratioP1;P1;durP2;ratioP2;P2;SDS_P1;SDS_P2;PMS_P1;PMS_P2;Temp;Humidity;BMP_temperature;BMP_pressure;BME280_temperature;BME280_humidity;BME280_pressure;Samples;Min_cycle;Max_cycle;Signal;HPM_P1;HPM_P2
2021/08/30 00:01:51;;;;;;;1.48;0.63;;;;;;;;;;5076597;28;20051;-68
2021/08/30 00:04:17;;;;;;;1.33;0.82;;;;;;;;;;5094681;28;20476;-67
2021/08/30 00:06:44;;;;;;;4.93;0.70;;;;;;;;;;5094700;28;20032;-69
2021/08/30 00:09:10;;;;;;;1.40;0.90;;;;;;;;;;5094024;28;20074;-65
2021/08/30 00:11:36;;;;;;;0.80;0.70;;;;;;;;;;5094385;28;20039;-65
2021/08/30 00:14:02;;;;;;;3.20;0.82;;;;;;;;;;5094250;28;20072;-67
2021/08/30 00:16:28;;;;;;;1.15;0.90;;;;;;;;;;5094449;28;20036;-66
2021/08/30 00:18:54;;;;;;;2.53;1.00;;;;;;;;;;5094359;28;20028;-67
2021/08/30 00:21:20;;;;;;;3.60;1.00;;;;;;;;;;5094083;28;20444;-66
2021/08/30 00:23:46;;;;;;;1.27;0.85;;;;;;;;;;5093910;28;20067;-66
2021/08/30 00:26:12;;;;;;;2.80;1.10;;;;;;;;;;5094427;28;20040;-66
2021/08/30 00:28:40;;;;;;;2.90;1.10;;;;;;;;;;5094028;28;20082;-68
2021/08/30 00:31:06;;;;;;;1.58;0.90;;;;;;;;;;5094006;28;20400;-65
2021/08/30 00:33:32;;;;;;;0.98;0.68;;;;;;;;;;5093683;28;20029;-66
2021/08/30 00:35:58;;;;;;;1.30;0.90;;;;;;;;;;5093316;28;20472;-66
2021/08/30 00:38:24;;;;;;;1.83;1.00;;;;;;;;;;5093997;28;20050;-65
2021/08/30 00:40:50;;;;;;;2.55;0.90;;;;;;;;;;5093585;28;20552;-66
2021/08/30 00:43:16;;;;;;;2.30;0.75;;;;;;;;;;5093464;28;20089;-65
2021/08/30 00:45:42;;;;;;;2.35;0.90;;;;;;;;;;5075671;28;20040;-65
2021/08/30 00:48:08;;;;;;;3.80;0.98;;;;;;;;;;5093892;28;20042;-65
2021/08/30 00:50:34;;;;;;;3.83;1.20;;;;;;;;;;5093690;28;20035;-65
2021/08/30 00:53:00;;;;;;;2.85;0.75;;;;;;;;;;5093965;28;20399;-65
2021/08/30 00:55:26;;;;;;;4.40;0.80;;;;;;;;;;5093414;28;20048;-65
2021/08/30 00:57:53;;;;;;;2.63;1.08;;;;;;;;;;5092669;28;20028;-65
2021/08/30 01:00:19;;;;;;;2.40;1.00;;;;;;;;;;5090526;28;20094;-65
2021/08/30 01:02:46;;;;;;;4.03;0.90;;;;;;;;;;5090721;28;20043;-65
2021/08/30 01:05:13;;;;;;;5.88;0.95;;;;;;;;;;5091777;28;20065;-65
2021/08/30 01:07:42;;;;;;;2.53;1.08;;;;;;;;;;5093096;28;20488;-65
2021/08/30 01:10:11;;;;;;;3.95;1.02;;;;;;;;;;5093263;28;20037;-65
2021/08/30 01:12:46;;;;;;;3.13;1.40;;;;;;;;;;5093092;28;20040;-66
2021/08/30 01:15:14;;;;;;;2.63;1.00;;;;;;;;;;5092985;28;20079;-65
2021/08/30 01:17:41;;;;;;;1.95;1.00;;;;;;;;;;5092812;28;20464;-64
2021/08/30 01:20:26;;;;;;;1.85;0.88;;;;;;;;;;5092900;28;20040;-65
2021/08/30 01:22:53;;;;;;;3.03;1.20;;;;;;;;;;5093134;28;20110;-66
2021/08/30 01:25:20;;;;;;;1.88;1.00;;;;;;;;;;5092961;28;20032;-65
2021/08/30 01:27:47;;;;;;;2.20;1.00;;;;;;;;;;5092713;28;20476;-66
2021/08/30 01:30:15;;;;;;;0.98;0.80;;;;;;;;;;5092877;28;20328;-65
2021/08/30 01:32:42;;;;;;;2.45;0.88;;;;;;;;;;5093018;28;20036;-65
2021/08/30 01:35:14;;;;;;;5.25;1.00;;;;;;;;;;5092424;28;20048;-65
2021/08/30 01:37:41;;;;;;;6.57;1.00;;;;;;;;;;5092834;28;20035;-66
2021/08/30 01:40:08;;;;;;;2.58;1.00;;;;;;;;;;5092822;28;20036;-65
2021/08/30 01:42:35;;;;;;;2.58;0.65;;;;;;;;;;5092791;28;20032;-66
2021/08/30 01:45:02;;;;;;;3.75;0.80;;;;;;;;;;5092754;28;20194;-66
2021/08/30 01:47:29;;;;;;;1.80;1.00;;;;;;;;;;5095361;28;20123;-66
2021/08/30 01:50:02;;;;;;;1.90;0.90;;;;;;;;;;5096965;28;20122;-66
2021/08/30 01:52:30;;;;;;;1.98;0.75;;;;;;;;;;5096875;28;20491;-66
2021/08/30 01:54:57;;;;;;;1.30;0.80;;;;;;;;;;5096666;28;20480;-68
2021/08/30 01:57:24;;;;;;;1.58;0.85;;;;;;;;;;5096629;28;20559;-67
2021/08/30 02:02:37;;;;;;;0.73;0.50;;;;;;;;;;5097115;28;20521;-66
2021/08/30 02:05:03;;;;;;;0.93;0.52;;;;;;;;;;5096742;28;20114;-65
2021/08/30 02:07:29;;;;;;;2.53;0.70;;;;;;;;;;5096770;28;20034;-65
2021/08/30 02:09:55;;;;;;;1.35;0.70;;;;;;;;;;5097123;28;20082;-66
2021/08/30 02:12:21;;;;;;;1.40;0.63;;;;;;;;;;5096734;28;20468;-65
2021/08/30 02:14:47;;;;;;;0.75;0.55;;;;;;;;;;5096653;28;20044;-66
2021/08/30 02:17:22;;;;;;;4.68;0.60;;;;;;;;;;5096524;28;20024;-65
2021/08/30 02:19:52;;;;;;;2.40;0.50;;;;;;;;;;5096587;28;20032;-65
2021/08/30 02:22:23;;;;;;;0.90;0.55;;;;;;;;;;5096412;28;20036;-65
2021/08/30 02:24:55;;;;;;;1.40;0.60;;;;;;;;;;5096352;28;20067;-65
2021/08/30 02:27:26;;;;;;;2.42;0.55;;;;;;;;;;5096211;28;20032;-66
2021/08/30 02:30:12;;;;;;;1.77;0.63;;;;;;;;;;5096387;28;20036;-66
2021/08/30 02:32:38;;;;;;;2.20;0.57;;;;;;;;;;5096353;28;20112;-67
2021/08/30 02:35:05;;;;;;;1.70;0.65;;;;;;;;;;5096338;28;20051;-66
2021/08/30 02:37:34;;;;;;;1.27;0.60;;;;;;;;;;5096228;28;20036;-66
2021/08/30 02:40:00;;;;;;;1.05;0.50;;;;;;;;;;5095999;28;20388;-66
2021/08/30 02:42:29;;;;;;;2.60;0.60;;;;;;;;;;5096345;28;20036;-66
2021/08/30 02:44:56;;;;;;;0.77;0.70;;;;;;;;;;5096203;28;20032;-66
2021/08/30 02:47:22;;;;;;;3.50;0.60;;;;;;;;;;5096197;28;20479;-67
2021/08/30 02:49:48;;;;;;;1.23;0.60;;;;;;;;;;5095976;28;20040;-66
2021/08/30 02:52:16;;;;;;;1.38;0.60;;;;;;;;;;5096024;28;20050;-66
2021/08/30 02:54:43;;;;;;;0.40;0.40;;;;;;;;;;5095956;28;20044;-65
2021/08/30 02:57:09;;;;;;;2.05;0.70;;;;;;;;;;5095830;28;20074;-67
2021/08/30 02:59:36;;;;;;;4.35;1.00;;;;;;;;;;5094702;28;20115;-70
2021/08/30 03:02:03;;;;;;;2.40;0.80;;;;;;;;;;5095858;28;20478;-67
2021/08/30 03:04:32;;;;;;;3.20;0.75;;;;;;;;;;5095792;28;20115;-66
2021/08/30 03:06:59;;;;;;;3.95;1.00;;;;;;;;;;5095559;28;20027;-68
2021/08/30 03:09:25;;;;;;;1.23;0.75;;;;;;;;;;5096131;28;20032;-66
2021/08/30 03:11:53;;;;;;;1.35;0.70;;;;;;;;;;5095812;28;20048;-67
2021/08/30 03:14:23;;;;;;;1.15;0.80;;;;;;;;;;5095692;28;20432;-68
2021/08/30 03:16:52;;;;;;;0.90;0.60;;;;;;;;;;5095378;28;20542;-68
2021/08/30 03:19:18;;;;;;;3.58;0.93;;;;;;;;;;5095391;28;20036;-67
2021/08/30 03:21:44;;;;;;;2.28;0.90;;;;;;;;;;5095522;28;20071;-67
2021/08/30 03:24:11;;;;;;;3.35;0.90;;;;;;;;;;5095522;28;20392;-66
2021/08/30 03:26:38;;;;;;;1.95;0.55;;;;;;;;;;5095256;28;20174;-66
2021/08/30 03:29:06;;;;;;;0.82;0.60;;;;;;;;;;5095322;28;20063;-65
2021/08/30 03:31:32;;;;;;;1.85;0.68;;;;;;;;;;5095171;28;20039;-65
2021/08/30 03:33:59;;;;;;;3.42;0.70;;;;;;;;;;5095439;28;20102;-65
2021/08/30 03:36:26;;;;;;;1.42;0.85;;;;;;;;;;5094992;28;20040;-65
2021/08/30 03:38:52;;;;;;;1.08;0.63;;;;;;;;;;5095143;28;20062;-65
2021/08/30 03:41:19;;;;;;;3.28;0.95;;;;;;;;;;5095071;28;20032;-65
2021/08/30 03:43:46;;;;;;;3.72;0.70;;;;;;;;;;5094842;28;20051;-65
2021/08/30 03:46:13;;;;;;;2.55;0.80;;;;;;;;;;5094958;28;20389;-65
2021/08/30 03:48:39;;;;;;;3.75;1.00;;;;;;;;;;5095091;28;20115;-65
2021/08/30 03:51:06;;;;;;;4.20;0.80;;;;;;;;;;5094891;28;20046;-65
2021/08/30 03:53:32;;;;;;;3.30;0.90;;;;;;;;;;5094541;28;20070;-65
2021/08/30 03:55:59;;;;;;;0.73;0.60;;;;;;;;;;5094836;28;20500;-65
2021/08/30 03:58:25;;;;;;;3.33;0.63;;;;;;;;;;5094486;28;20461;-66
2021/08/30 04:00:52;;;;;;;5.60;0.77;;;;;;;;;;5094566;28;20204;-66
2021/08/30 04:03:18;;;;;;;2.30;0.70;;;;;;;;;;5094789;28;20047;-66
2021/08/30 04:05:47;;;;;;;4.07;0.70;;;;;;;;;;5094598;28;20068;-65
2021/08/30 04:08:13;;;;;;;1.42;0.65;;;;;;;;;;5094507;28;20043;-67
2021/08/30 04:10:39;;;;;;;1.27;0.80;;;;;;;;;;5094229;28;20032;-67
2021/08/30 04:13:06;;;;;;;2.15;0.80;;;;;;;;;;5094569;28;20476;-66
2021/08/30 04:15:32;;;;;;;2.35;0.60;;;;;;;;;;5094711;28;20146;-64
2021/08/30 04:17:58;;;;;;;1.67;0.95;;;;;;;;;;5094356;28;20480;-65
2021/08/30 04:20:24;;;;;;;5.32;0.80;;;;;;;;;;5094474;28;20039;-66
2021/08/30 04:22:50;;;;;;;6.68;0.80;;;;;;;;;;5094297;28;20062;-65
2021/08/30 04:25:16;;;;;;;4.18;0.88;;;;;;;;;;5093967;28;20032;-65
2021/08/30 04:27:43;;;;;;;2.70;0.60;;;;;;;;;;5094096;28;20048;-67
2021/08/30 04:30:09;;;;;;;5.65;0.73;;;;;;;;;;5094108;28;20036;-65
2021/08/30 04:32:37;;;;;;;5.78;0.82;;;;;;;;;;5093958;28;20038;-65
2021/08/30 04:35:05;;;;;;;5.03;0.73;;;;;;;;;;5093791;28;20044;-66
2021/08/30 04:37:31;;;;;;;1.65;0.85;;;;;;;;;;5094007;28;20033;-65
2021/08/30 04:39:57;;;;;;;1.65;0.70;;;;;;;;;;5093955;28;20036;-65
2021/08/30 04:42:23;;;;;;;3.22;0.93;;;;;;;;;;5093838;28;20028;-67
2021/08/30 04:44:52;;;;;;;3.05;0.90;;;;;;;;;;5093903;28;20044;-66
2021/08/30 04:47:18;;;;;;;1.13;0.70;;;;;;;;;;5093734;28;20158;-65
2021/08/30 04:49:44;;;;;;;3.03;0.90;;;;;;;;;;5093764;28;20036;-66
2021/08/30 04:52:10;;;;;;;6.75;0.98;;;;;;;;;;5093780;28;20111;-65
2021/08/30 04:54:36;;;;;;;1.83;0.80;;;;;;;;;;5093802;28;20036;-65
2021/08/30 04:57:02;;;;;;;2.42;0.90;;;;;;;;;;5093723;28;20507;-66
2021/08/30 04:59:28;;;;;;;2.17;0.80;;;;;;;;;;5093645;28;20044;-66
2021/08/30 05:01:55;;;;;;;2.75;1.00;;;;;;;;;;5093646;28;20059;-65
2021/08/30 05:04:21;;;;;;;7.30;0.90;;;;;;;;;;5093759;28;20499;-70
2021/08/30 05:06:47;;;;;;;4.40;1.00;;;;;;;;;;5093408;28;20032;-67
2021/08/30 05:09:13;;;;;;;1.90;0.60;;;;;;;;;;5093717;28;20036;-66
2021/08/30 05:11:39;;;;;;;2.60;0.93;;;;;;;;;;5093443;28;20028;-66
2021/08/30 05:14:05;;;;;;;2.25;0.70;;;;;;;;;;5093337;28;20101;-66
2021/08/30 05:16:31;;;;;;;3.60;1.17;;;;;;;;;;5093424;28;20074;-65
2021/08/30 05:18:57;;;;;;;3.38;1.00;;;;;;;;;;5093595;28;20442;-69
2021/08/30 05:21:23;;;;;;;3.15;1.00;;;;;;;;;;5092674;28;20032;-68
2021/08/30 05:23:49;;;;;;;6.07;1.17;;;;;;;;;;5093359;28;20055;-66
2021/08/30 05:26:15;;;;;;;4.47;1.17;;;;;;;;;;5093104;28;20032;-68
2021/08/30 05:28:41;;;;;;;4.60;1.38;;;;;;;;;;5093410;28;20046;-67
2021/08/30 05:31:07;;;;;;;5.10;1.05;;;;;;;;;;5093330;28;20028;-65
2021/08/30 05:33:36;;;;;;;3.88;1.10;;;;;;;;;;5093178;28;20040;-65
2021/08/30 05:36:02;;;;;;;5.88;0.95;;;;;;;;;;5092946;28;20141;-69
2021/08/30 05:38:28;;;;;;;1.98;0.98;;;;;;;;;;5093206;28;20059;-64
2021/08/30 05:40:54;;;;;;;1.80;1.02;;;;;;;;;;5093296;28;20050;-67
2021/08/30 05:43:20;;;;;;;4.22;0.90;;;;;;;;;;5093126;28;20447;-67
2021/08/30 05:45:46;;;;;;;2.88;1.20;;;;;;;;;;5093110;28;20037;-64
2021/08/30 05:48:12;;;;;;;4.20;1.90;;;;;;;;;;5092976;28;20101;-64
2021/08/30 05:50:38;;;;;;;2.95;1.52;;;;;;;;;;5093192;28;20099;-67
2021/08/30 05:53:04;;;;;;;5.28;0.93;;;;;;;;;;5093174;28;20464;-66
2021/08/30 05:55:30;;;;;;;6.57;1.23;;;;;;;;;;5092854;28;20047;-66
2021/08/30 05:57:56;;;;;;;4.22;0.90;;;;;;;;;;5093287;28;20032;-64
2021/08/30 06:00:22;;;;;;;2.75;1.10;;;;;;;;;;5093129;28;20044;-67
2021/08/30 06:02:48;;;;;;;7.25;1.10;;;;;;;;;;5092853;28;20039;-68
2021/08/30 06:05:14;;;;;;;4.40;1.23;;;;;;;;;;5092994;28;20025;-70
2021/08/30 06:07:40;;;;;;;4.75;1.15;;;;;;;;;;5093014;28;20032;-66
2021/08/30 06:10:07;;;;;;;5.35;1.15;;;;;;;;;;5093019;28;20024;-66
2021/08/30 06:12:33;;;;;;;5.53;1.10;;;;;;;;;;5092879;28;20090;-67
2021/08/30 06:14:59;;;;;;;2.42;1.23;;;;;;;;;;5092741;28;20039;-66
2021/08/30 06:17:25;;;;;;;3.75;0.85;;;;;;;;;;5092838;28;20036;-68
2021/08/30 06:19:51;;;;;;;2.47;0.85;;;;;;;;;;5092799;28;20439;-64
2021/08/30 06:22:17;;;;;;;2.30;0.98;;;;;;;;;;5092803;28;20040;-66
2021/08/30 06:24:47;;;;;;;3.83;1.20;;;;;;;;;;5093076;28;20036;-66
2021/08/30 06:27:14;;;;;;;2.15;0.82;;;;;;;;;;5092806;28;20029;-67
2021/08/30 06:29:40;;;;;;;1.85;0.68;;;;;;;;;;5092883;28;20040;-66
2021/08/30 06:32:06;;;;;;;1.45;0.70;;;;;;;;;;5092745;28;20093;-66
2021/08/30 06:34:32;;;;;;;5.85;0.73;;;;;;;;;;5095198;28;20044;-67
2021/08/30 06:36:58;;;;;;;2.25;0.70;;;;;;;;;;5096349;28;20032;-66
2021/08/30 06:39:24;;;;;;;1.98;0.80;;;;;;;;;;5096292;28;20107;-66
2021/08/30 06:41:50;;;;;;;3.45;0.70;;;;;;;;;;5096075;28;20090;-66
2021/08/30 06:44:16;;;;;;;3.50;0.70;;;;;;;;;;5096360;28;20032;-65
2021/08/30 06:46:42;;;;;;;4.30;1.00;;;;;;;;;;5096383;28;20036;-66
2021/08/30 06:49:08;;;;;;;3.80;0.88;;;;;;;;;;5096089;28;20032;-66
2021/08/30 06:51:34;;;;;;;4.32;0.80;;;;;;;;;;5095860;28;20552;-67
2021/08/30 06:54:00;;;;;;;8.38;0.90;;;;;;;;;;5095847;28;20111;-65
2021/08/30 06:56:26;;;;;;;4.43;1.02;;;;;;;;;;5095675;28;20114;-66
2021/08/30 06:58:52;;;;;;;1.90;0.85;;;;;;;;;;5095690;28;20408;-66
2021/08/30 18:24:24;;;;;;;3.08;1.10;;;;;;;;;;5088695;28;20086;-69
2021/08/30 18:26:50;;;;;;;5.05;1.10;;;;;;;;;;5092584;28;20060;-66
2021/08/30 18:29:16;;;;;;;6.93;1.60;;;;;;;;;;5094661;28;20043;-66
2021/08/30 18:31:43;;;;;;;4.75;1.25;;;;;;;;;;5096328;28;20024;-66
2021/08/30 18:34:09;;;;;;;9.43;2.20;;;;;;;;;;5096602;28;20040;-65
2021/08/30 18:36:35;;;;;;;2.75;1.67;;;;;;;;;;5093133;28;20078;-67
2021/08/30 18:39:01;;;;;;;6.18;1.67;;;;;;;;;;5074938;28;20086;-68
2021/08/30 18:41:28;;;;;;;2.05;1.13;;;;;;;;;;5093759;28;20488;-68
2021/08/30 18:43:54;;;;;;;1.75;0.93;;;;;;;;;;5095847;28;20368;-67
2021/08/30 18:46:20;;;;;;;3.92;1.08;;;;;;;;;;5096210;28;20039;-66
2021/08/30 18:48:46;;;;;;;1.98;1.08;;;;;;;;;;5096043;28;20103;-66
2021/08/30 18:51:12;;;;;;;2.63;1.10;;;;;;;;;;5095692;28;20040;-66
2021/08/30 18:53:38;;;;;;;3.42;0.80;;;;;;;;;;5095566;28;20039;-66
2021/08/30 18:56:09;;;;;;;2.45;1.20;;;;;;;;;;5095573;28;20044;-67
2021/08/30 18:58:35;;;;;;;4.00;1.00;;;;;;;;;;5095612;28;20039;-66
2021/08/30 19:01:01;;;;;;;3.10;1.10;;;;;;;;;;5095691;28;20040;-66
2021/08/30 19:03:27;;;;;;;3.53;1.08;;;;;;;;;;5077054;28;20059;-66
2021/08/30 19:05:53;;;;;;;3.20;1.02;;;;;;;;;;5094903;28;20020;-66
2021/08/30 19:08:19;;;;;;;5.55;1.20;;;;;;;;;;5095244;28;20059;-67
2021/08/30 19:10:45;;;;;;;3.08;1.25;;;;;;;;;;5095183;28;20111;-65
2021/08/30 19:13:12;;;;;;;2.88;1.20;;;;;;;;;;5095094;28;20086;-66
2021/08/30 19:15:38;;;;;;;2.25;1.30;;;;;;;;;;5095221;28;20048;-67
2021/08/30 19:18:04;;;;;;;2.38;1.08;;;;;;;;;;5095232;28;20039;-65
2021/08/30 19:20:30;;;;;;;5.93;1.60;;;;;;;;;;5095033;28;20032;-66
2021/08/30 19:22:58;;;;;;;2.47;1.17;;;;;;;;;;5094943;28;20103;-66
2021/08/30 19:25:28;;;;;;;2.60;1.23;;;;;;;;;;5094636;28;20067;-65
2021/08/30 19:27:55;;;;;;;1.88;0.93;;;;;;;;;;5094859;28;20040;-65
2021/08/30 19:30:21;;;;;;;1.70;0.98;;;;;;;;;;5094755;28;20079;-66
2021/08/30 19:32:47;;;;;;;2.10;1.20;;;;;;;;;;5094481;28;20115;-65
2021/08/30 19:35:13;;;;;;;4.88;1.55;;;;;;;;;;5093250;28;20159;-66
2021/08/30 19:37:39;;;;;;;4.03;1.58;;;;;;;;;;5093989;28;20032;-65
2021/08/30 19:40:06;;;;;;;3.15;1.55;;;;;;;;;;5094136;28;20067;-67
2021/08/30 19:42:32;;;;;;;4.93;2.08;;;;;;;;;;5094293;28;20090;-66
2021/08/30 19:44:59;;;;;;;2.58;1.90;;;;;;;;;;5094448;28;20473;-66
2021/08/30 19:47:25;;;;;;;3.35;2.10;;;;;;;;;;5094586;28;20572;-65
2021/08/30 19:49:51;;;;;;;6.68;1.90;;;;;;;;;;5094568;28;20032;-65
2021/08/30 19:52:17;;;;;;;3.15;1.70;;;;;;;;;;5094669;28;20507;-65
2021/08/30 19:54:43;;;;;;;2.55;1.90;;;;;;;;;;5094560;28;20500;-66
2021/08/30 19:57:10;;;;;;;4.72;1.98;;;;;;;;;;5094537;28;20032;-66
2021/08/30 19:59:36;;;;;;;4.13;1.73;;;;;;;;;;5094573;28;20039;-66
2021/08/30 20:02:02;;;;;;;3.55;1.98;;;;;;;;;;5094519;28;20032;-65
2021/08/30 20:04:28;;;;;;;5.63;2.03;;;;;;;;;;5094387;28;20032;-65
2021/08/30 20:06:54;;;;;;;3.65;1.65;;;;;;;;;;5093784;28;20321;-65
2021/08/30 20:09:21;;;;;;;3.08;1.65;;;;;;;;;;5093767;28;20519;-67
2021/08/30 20:11:47;;;;;;;4.10;1.40;;;;;;;;;;5093283;28;20020;-65
2021/08/30 20:14:17;;;;;;;2.38;1.30;;;;;;;;;;5093267;28;20028;-66
2021/08/30 20:16:43;;;;;;;8.73;1.45;;;;;;;;;;5094258;28;20036;-66
2021/08/30 20:19:09;;;;;;;2.72;1.50;;;;;;;;;;5094214;28;20070;-68
2021/08/30 20:21:35;;;;;;;4.25;1.70;;;;;;;;;;5093272;28;20121;-66
2021/08/30 20:24:01;;;;;;;3.25;1.40;;;;;;;;;;5094116;28;20123;-66
2021/08/30 20:26:27;;;;;;;4.75;1.23;;;;;;;;;;5094284;28;20028;-65
2021/08/30 20:28:53;;;;;;;1.98;1.35;;;;;;;;;;5093820;28;20082;-65
2021/08/30 20:31:19;;;;;;;2.65;1.23;;;;;;;;;;5093825;28;20435;-65
2021/08/30 20:33:47;;;;;;;2.92;1.48;;;;;;;;;;5093709;28;20082;-66
2021/08/30 20:36:13;;;;;;;3.45;1.55;;;;;;;;;;5093041;28;20546;-66
2021/08/30 20:38:40;;;;;;;1.67;1.23;;;;;;;;;;5093941;28;20033;-65
2021/08/30 20:41:06;;;;;;;4.88;1.63;;;;;;;;;;5093742;28;20032;-65
2021/08/30 20:43:32;;;;;;;2.55;1.50;;;;;;;;;;5093560;28;20507;-65
2021/08/30 20:45:58;;;;;;;2.53;1.40;;;;;;;;;;5093746;28;20042;-66
2021/08/30 20:48:24;;;;;;;2.00;1.40;;;;;;;;;;5093428;28;20070;-65
2021/08/30 20:50:50;;;;;;;1.52;0.90;;;;;;;;;;5093213;28;20028;-65
2021/08/30 20:53:16;;;;;;;1.58;1.13;;;;;;;;;;5092507;28;20523;-66
2021/08/30 20:55:42;;;;;;;3.70;1.40;;;;;;;;;;5093193;28;20052;-66
2021/08/30 20:58:08;;;;;;;4.72;0.95;;;;;;;;;;5093101;28;20028;-66
2021/08/30 21:00:34;;;;;;;4.30;1.40;;;;;;;;;;5091257;28;20507;-65
2021/08/30 21:03:00;;;;;;;3.75;1.35;;;;;;;;;;5090441;28;20040;-65
2021/08/30 21:05:26;;;;;;;1.80;1.17;;;;;;;;;;5091339;28;20036;-66
2021/08/30 21:07:52;;;;;;;1.92;1.10;;;;;;;;;;5093162;28;20071;-65
2021/08/30 21:10:19;;;;;;;4.43;1.17;;;;;;;;;;5093410;28;20504;-65
2021/08/30 21:12:45;;;;;;;1.25;0.90;;;;;;;;;;5093006;28;20032;-65
2021/08/30 21:15:12;;;;;;;1.98;1.05;;;;;;;;;;5092972;28;20122;-65
2021/08/30 21:17:39;;;;;;;3.75;1.20;;;;;;;;;;5093384;28;20419;-65
2021/08/30 21:20:05;;;;;;;3.28;1.10;;;;;;;;;;5093101;28;20039;-65
2021/08/30 21:22:31;;;;;;;4.20;1.10;;;;;;;;;;5093125;28;20031;-65
2021/08/30 21:24:57;;;;;;;3.22;1.00;;;;;;;;;;5092234;28;20143;-65
2021/08/30 21:27:23;;;;;;;1.73;1.02;;;;;;;;;;5093043;28;20063;-67
2021/08/30 21:29:49;;;;;;;2.05;1.23;;;;;;;;;;5092958;28;20028;-65
2021/08/30 21:32:17;;;;;;;2.10;1.10;;;;;;;;;;5093141;28;20047;-67
2021/08/30 21:34:43;;;;;;;3.60;1.40;;;;;;;;;;5092849;28;20028;-65
2021/08/30 21:37:09;;;;;;;2.92;1.40;;;;;;;;;;5093104;28;20036;-65
2021/08/30 21:39:35;;;;;;;1.98;1.20;;;;;;;;;;5093234;28;20055;-67
2021/08/30 21:42:01;;;;;;;3.15;1.15;;;;;;;;;;5093032;28;20036;-65
2021/08/30 21:44:27;;;;;;;2.10;1.15;;;;;;;;;;5092746;28;20028;-70
2021/08/30 21:46:53;;;;;;;5.47;1.20;;;;;;;;;;5092791;28;20040;-65
2021/08/30 21:49:19;;;;;;;1.73;1.20;;;;;;;;;;5092655;28;20392;-66
2021/08/30 21:51:45;;;;;;;2.03;1.00;;;;;;;;;;5092877;28;20036;-66
2021/08/30 21:54:11;;;;;;;2.45;1.08;;;;;;;;;;5092548;28;20028;-67
2021/08/30 21:56:38;;;;;;;5.38;1.17;;;;;;;;;;5092706;28;20090;-65
2021/08/30 21:59:04;;;;;;;2.33;0.90;;;;;;;;;;5092750;28;20029;-66
2021/08/30 22:01:31;;;;;;;4.00;0.82;;;;;;;;;;5092659;28;20032;-65
2021/08/30 22:03:58;;;;;;;2.05;1.10;;;;;;;;;;5094653;28;20433;-65
2021/08/30 22:06:25;;;;;;;1.52;0.77;;;;;;;;;;5096888;28;20044;-65
2021/08/30 22:08:51;;;;;;;1.42;0.75;;;;;;;;;;5096796;28;20610;-67
2021/08/30 22:11:17;;;;;;;2.45;0.93;;;;;;;;;;5096866;28;20050;-67
2021/08/30 22:13:43;;;;;;;2.92;1.17;;;;;;;;;;5096484;28;20556;-66
2021/08/30 22:16:10;;;;;;;3.65;0.85;;;;;;;;;;5096624;28;20078;-65
2021/08/30 22:18:36;;;;;;;3.92;0.90;;;;;;;;;;5096694;28;20032;-66
2021/08/30 22:21:02;;;;;;;3.72;1.20;;;;;;;;;;5096058;28;20052;-65
2021/08/30 22:23:28;;;;;;;0.85;0.77;;;;;;;;;;5096393;28;20086;-66
2021/08/30 22:25:55;;;;;;;1.70;0.90;;;;;;;;;;5096530;28;20040;-66
2021/08/30 22:28:21;;;;;;;5.43;1.08;;;;;;;;;;5096237;28;20032;-67
2021/08/30 22:30:47;;;;;;;2.90;1.27;;;;;;;;;;5096156;28;20493;-66
2021/08/30 22:33:14;;;;;;;1.95;1.08;;;;;;;;;;5096217;28;20020;-67
2021/08/30 22:35:40;;;;;;;3.35;1.02;;;;;;;;;;5096000;28;20447;-65
2021/08/30 22:38:06;;;;;;;2.03;1.17;;;;;;;;;;5096041;28;20053;-65
2021/08/30 22:40:32;;;;;;;3.20;1.00;;;;;;;;;;5095943;28;20036;-65
2021/08/30 22:42:58;;;;;;;1.92;1.15;;;;;;;;;;5096136;28;20029;-68
2021/08/30 22:45:24;;;;;;;1.45;1.05;;;;;;;;;;5096028;28;20036;-68
2021/08/30 22:47:50;;;;;;;2.58;1.08;;;;;;;;;;5096154;28;20042;-67
2021/08/30 22:50:16;;;;;;;3.20;1.40;;;;;;;;;;5095874;28;20035;-64
2021/08/30 22:52:42;;;;;;;3.40;1.10;;;;;;;;;;5095945;28;20101;-66
2021/08/30 22:55:09;;;;;;;3.38;1.45;;;;;;;;;;5095811;28;20040;-65
2021/08/30 22:57:35;;;;;;;2.03;1.20;;;;;;;;;;5095966;28;20039;-66
2021/08/30 23:00:01;;;;;;;3.33;2.22;;;;;;;;;;5095748;28;20480;-68
2021/08/30 23:02:27;;;;;;;3.70;1.10;;;;;;;;;;5095146;28;20060;-65
2021/08/30 23:04:53;;;;;;;5.32;1.40;;;;;;;;;;5094853;28;20032;-66
2021/08/30 23:07:19;;;;;;;2.97;1.30;;;;;;;;;;5095263;28;20036;-66
2021/08/30 23:09:45;;;;;;;3.80;1.15;;;;;;;;;;5094870;28;20039;-65
2021/08/30 23:12:11;;;;;;;3.38;1.10;;;;;;;;;;5094955;28;20110;-66
2021/08/30 23:14:37;;;;;;;4.82;1.20;;;;;;;;;;5094695;28;20116;-65
2021/08/30 23:17:03;;;;;;;4.28;1.38;;;;;;;;;;5095033;28;20039;-65
2021/08/30 23:19:29;;;;;;;2.78;1.08;;;;;;;;;;5095553;28;20427;-65
2021/08/30 23:21:55;;;;;;;2.60;1.13;;;;;;;;;;5095680;28;20032;-65
2021/08/30 23:24:21;;;;;;;2.15;1.08;;;;;;;;;;5095211;28;20074;-66
2021/08/30 23:26:47;;;;;;;1.60;0.90;;;;;;;;;;5095037;28;20027;-69
2021/08/30 23:29:15;;;;;;;2.58;1.17;;;;;;;;;;5095239;28;20040;-64
2021/08/30 23:31:41;;;;;;;3.63;1.13;;;;;;;;;;5095137;28;20028;-65
2021/08/30 23:34:07;;;;;;;1.30;1.00;;;;;;;;;;5094991;28;20051;-65
2021/08/30 23:36:33;;;;;;;2.08;1.00;;;;;;;;;;5094945;28;20048;-65
2021/08/30 23:38:59;;;;;;;3.33;1.10;;;;;;;;;;5095103;28;20511;-65
2021/08/30 23:41:25;;;;;;;1.60;1.10;;;;;;;;;;5095004;28;20028;-65
2021/08/30 23:43:51;;;;;;;1.48;0.88;;;;;;;;;;5094028;28;20059;-65
2021/08/30 23:46:17;;;;;;;3.97;1.33;;;;;;;;;;5093670;28;20063;-66
2021/08/30 23:48:43;;;;;;;3.58;1.20;;;;;;;;;;5093904;28;20029;-71
2021/08/30 23:51:09;;;;;;;1.95;1.00;;;;;;;;;;5094403;28;20520;-65
2021/08/30 23:53:35;;;;;;;2.55;1.10;;;;;;;;;;5094565;28;20035;-67
2021/08/30 23:56:01;;;;;;;3.63;1.30;;;;;;;;;;5094109;28;20036;-65
2021/08/30 23:58:27;;;;;;;3.05;1.10;;;;;;;;;;5094678;28;20119;-65
